Time;durP1;ratioP1;P1;durP2;ratioP2;P2;SDS_P1;SDS_P2;PMS_P1;PMS_P2;Temp;Humidity;BMP_temperature;BMP_pressure;BME280_temperature;BME280_humidity;BME280_pressure;Samples;Min_cycle;Max_cycle;Signal;HPM_P1;HPM_P2
2023/04/18 00:02:21;;;;;;;16.63;14.93;;;6.70;99.90;;;;;;4958916;28;20087;-76
2023/04/18 00:04:49;;;;;;;15.63;14.13;;;6.70;99.90;;;;;;4989259;28;20431;-76
2023/04/18 00:07:16;;;;;;;15.13;13.63;;;6.60;99.90;;;;;;5057296;28;20150;-77
2023/04/18 00:09:42;;;;;;;16.67;14.88;;;6.60;99.90;;;;;;4982130;28;20114;-76
2023/04/18 00:12:09;;;;;;;16.13;14.50;;;6.50;99.90;;;;;;4985526;28;20045;-76
2023/04/18 00:14:36;;;;;;;16.58;14.90;;;6.50;99.90;;;;;;4954915;28;20042;-76
2023/04/18 00:17:02;;;;;;;17.38;14.20;;;6.30;99.90;;;;;;4978343;28;20042;-76
2023/04/18 00:19:28;;;;;;;16.50;14.98;;;6.30;99.90;;;;;;4958923;28;20039;-76
2023/04/18 00:21:53;;;;;;;16.52;14.93;;;6.20;99.90;;;;;;4958144;28;20039;-76
2023/04/18 00:24:19;;;;;;;15.82;14.23;;;6.20;99.90;;;;;;4953950;28;20074;-76
2023/04/18 00:26:44;;;;;;;16.42;14.82;;;6.10;99.90;;;;;;4951680;29;20524;-76
2023/04/18 00:29:10;;;;;;;16.20;14.70;;;6.10;99.90;;;;;;4963387;28;20481;-76
2023/04/18 00:31:36;;;;;;;16.17;14.63;;;6.00;99.90;;;;;;4949640;28;20032;-76
2023/04/18 00:34:01;;;;;;;17.00;14.77;;;6.00;99.90;;;;;;4974314;28;20043;-76
2023/04/18 00:36:27;;;;;;;16.67;13.88;;;6.00;99.90;;;;;;5002799;28;20035;-76
2023/04/18 00:38:52;;;;;;;16.02;14.48;;;6.00;99.90;;;;;;4951828;28;20054;-76
2023/04/18 00:41:20;;;;;;;16.27;14.57;;;6.00;99.90;;;;;;4946102;28;20038;-76
2023/04/18 00:43:46;;;;;;;16.00;14.60;;;6.00;99.90;;;;;;5001031;28;20122;-76
2023/04/18 00:46:11;;;;;;;16.63;15.18;;;6.00;99.90;;;;;;4952980;28;20542;-76
2023/04/18 00:48:38;;;;;;;16.58;14.85;;;5.90;99.90;;;;;;4974209;28;20384;-76
2023/04/18 00:51:05;;;;;;;16.75;15.00;;;5.90;99.90;;;;;;4955334;28;20043;-76
2023/04/18 00:53:30;;;;;;;17.40;15.70;;;5.90;99.90;;;;;;5012638;28;20468;-76
2023/04/18 00:55:56;;;;;;;16.35;14.75;;;5.90;99.90;;;;;;5017741;28;20074;-76
2023/04/18 00:58:23;;;;;;;16.23;14.32;;;5.80;99.90;;;;;;4961592;28;20484;-76
2023/04/18 01:00:49;;;;;;;16.83;15.15;;;5.70;99.90;;;;;;5039968;28;20044;-76
2023/04/18 01:03:16;;;;;;;17.98;16.15;;;5.60;99.90;;;;;;4985214;28;20051;-76
2023/04/18 01:05:43;;;;;;;16.95;15.35;;;5.60;99.90;;;;;;4950125;29;20049;-76
2023/04/18 01:08:09;;;;;;;17.23;15.50;;;5.50;99.90;;;;;;4935185;29;20122;-76
2023/04/18 01:10:36;;;;;;;18.15;16.38;;;5.40;99.90;;;;;;4971244;28;20047;-76
2023/04/18 01:13:18;;;;;;;18.80;17.10;;;5.30;99.90;;;;;;4971247;28;20088;-76
2023/04/18 01:15:46;;;;;;;17.20;15.52;;;5.20;99.90;;;;;;4939660;28;20092;-76
2023/04/18 01:18:12;;;;;;;17.10;15.50;;;5.20;99.90;;;;;;4954458;28;20104;-76
2023/04/18 01:20:40;;;;;;;17.25;15.43;;;5.20;99.90;;;;;;4964825;28;20036;-76
2023/04/18 01:23:06;;;;;;;18.67;16.75;;;5.20;99.90;;;;;;4976636;28;20043;-76
2023/04/18 01:25:33;;;;;;;18.05;16.25;;;5.20;99.90;;;;;;4990794;28;20101;-76
2023/04/18 01:27:59;;;;;;;18.75;16.95;;;5.20;99.90;;;;;;5000789;28;20045;-76
2023/04/18 01:30:25;;;;;;;18.38;16.67;;;5.20;99.90;;;;;;5029195;28;20040;-76
2023/04/18 01:32:50;;;;;;;18.05;16.35;;;5.30;99.90;;;;;;5001172;28;20402;-76
2023/04/18 01:35:16;;;;;;;18.38;16.60;;;5.30;99.90;;;;;;5028556;28;20047;-76
2023/04/18 01:37:42;;;;;;;18.83;17.13;;;5.30;99.90;;;;;;4968999;28;20042;-76
2023/04/18 01:40:09;;;;;;;19.58;17.67;;;5.30;99.90;;;;;;4952302;28;20072;-76
2023/04/18 01:42:34;;;;;;;18.17;16.52;;;5.30;99.90;;;;;;4946876;28;20055;-76
2023/04/18 01:45:00;;;;;;;18.63;16.77;;;5.30;99.90;;;;;;4955629;28;20041;-76
2023/04/18 01:47:25;;;;;;;19.50;17.50;;;5.30;99.90;;;;;;5016787;28;20042;-76
2023/04/18 01:49:51;;;;;;;18.70;16.95;;;5.30;99.90;;;;;;4954226;28;20042;-76
2023/04/18 01:52:16;;;;;;;18.55;16.70;;;5.30;99.90;;;;;;4954139;28;20125;-76
2023/04/18 01:54:42;;;;;;;19.25;17.25;;;5.30;99.90;;;;;;4939494;28;20043;-76
2023/04/18 01:57:07;;;;;;;19.20;17.40;;;5.30;99.90;;;;;;4962048;28;20049;-76
2023/04/18 01:59:33;;;;;;;19.23;17.13;;;5.30;99.90;;;;;;4953352;28;20043;-76
2023/04/18 02:01:59;;;;;;;20.00;17.98;;;5.30;99.90;;;;;;4969928;28;20045;-76
2023/04/18 02:04:25;;;;;;;19.15;17.27;;;5.30;99.90;;;;;;4969244;28;20053;-76
2023/04/18 02:06:51;;;;;;;18.02;16.30;;;5.30;99.90;;;;;;4978438;28;20051;-76
2023/04/18 02:09:17;;;;;;;19.08;17.15;;;5.30;99.90;;;;;;4934352;29;20043;-76
2023/04/18 02:11:42;;;;;;;19.23;17.35;;;5.40;99.90;;;;;;4934330;29;20054;-76
2023/04/18 02:14:08;;;;;;;18.95;17.05;;;5.40;99.90;;;;;;4946950;28;20039;-75
2023/04/18 02:16:34;;;;;;;19.17;17.35;;;5.50;99.90;;;;;;5003116;28;20072;-75
2023/04/18 02:19:00;;;;;;;19.40;17.63;;;5.40;99.90;;;;;;5004360;28;20029;-75
2023/04/18 02:21:29;;;;;;;20.65;18.73;;;5.40;99.90;;;;;;4989232;28;20410;-75
2023/04/18 02:23:55;;;;;;;18.63;16.92;;;5.40;99.90;;;;;;4989685;28;20487;-76
2023/04/18 02:26:20;;;;;;;19.33;17.02;;;5.50;99.90;;;;;;5010442;28;20039;-76
2023/04/18 02:28:46;;;;;;;18.98;17.08;;;5.50;99.90;;;;;;4944463;28;20491;-76
2023/04/18 02:31:13;;;;;;;20.08;18.17;;;5.50;99.90;;;;;;4999405;28;20030;-76
2023/04/18 02:33:44;;;;;;;19.75;17.90;;;5.50;99.90;;;;;;4996102;28;20043;-76
2023/04/18 02:36:11;;;;;;;19.42;17.58;;;5.50;99.90;;;;;;5004438;28;20389;-76
2023/04/18 02:38:37;;;;;;;18.95;17.17;;;5.50;99.90;;;;;;5013067;28;20057;-76
2023/04/18 02:41:03;;;;;;;19.35;17.45;;;5.50;99.90;;;;;;4994676;28;20529;-76
2023/04/18 02:43:29;;;;;;;19.75;17.80;;;5.50;99.90;;;;;;5032141;28;20159;-76
2023/04/18 02:45:54;;;;;;;19.13;17.23;;;5.60;99.90;;;;;;4965903;28;20473;-75
2023/04/18 02:48:21;;;;;;;20.13;18.23;;;5.60;99.90;;;;;;4968578;28;20074;-75
2023/04/18 02:50:47;;;;;;;19.90;18.00;;;5.60;99.90;;;;;;5004237;28;20055;-76
2023/04/18 02:53:13;;;;;;;20.05;18.25;;;5.70;99.90;;;;;;5025584;28;20039;-76
2023/04/18 02:55:41;;;;;;;19.77;18.02;;;5.60;99.90;;;;;;5003785;28;20033;-77
2023/04/18 02:58:08;;;;;;;20.30;18.23;;;5.70;99.90;;;;;;5023322;28;20072;-74
2023/04/18 03:00:34;;;;;;;20.23;18.45;;;5.70;99.90;;;;;;4964040;28;20134;-75
2023/04/18 03:03:00;;;;;;;20.25;18.35;;;5.70;99.90;;;;;;4945831;28;20043;-75
2023/04/18 03:05:25;;;;;;;19.98;17.98;;;5.70;99.90;;;;;;5005181;28;20054;-75
2023/04/18 03:07:51;;;;;;;20.50;18.60;;;5.70;99.90;;;;;;5052163;28;20035;-74
2023/04/18 03:10:17;;;;;;;21.50;19.60;;;5.70;99.90;;;;;;4964834;28;20075;-75
2023/04/18 03:12:42;;;;;;;19.42;17.67;;;5.80;99.90;;;;;;4952123;28;20054;-74
2023/04/18 03:15:08;;;;;;;20.48;18.58;;;5.80;99.90;;;;;;4988676;28;20043;-75
2023/04/18 03:17:35;;;;;;;20.08;18.10;;;5.80;99.90;;;;;;4987777;28;20554;-75
2023/04/18 03:20:00;;;;;;;20.42;18.52;;;5.90;99.90;;;;;;5002789;28;20476;-75
2023/04/18 03:22:26;;;;;;;20.23;18.23;;;5.90;99.90;;;;;;4961791;28;20043;-74
2023/04/18 03:24:51;;;;;;;20.05;18.02;;;5.90;99.90;;;;;;4967703;28;20483;-75
2023/04/18 03:27:17;;;;;;;21.33;19.10;;;5.90;99.90;;;;;;4975519;28;20449;-74
2023/04/18 03:29:43;;;;;;;21.17;19.27;;;5.90;99.90;;;;;;4958804;28;20047;-74
2023/04/18 03:32:08;;;;;;;21.80;19.80;;;5.90;99.90;;;;;;5039242;28;20111;-75
2023/04/18 03:34:34;;;;;;;21.98;19.98;;;5.90;99.90;;;;;;5002161;28;20028;-75
2023/04/18 03:37:00;;;;;;;22.00;20.00;;;5.90;99.90;;;;;;4950750;28;20124;-75
2023/04/18 03:39:26;;;;;;;21.25;19.25;;;5.90;99.90;;;;;;4977155;28;20121;-75
2023/04/18 03:41:51;;;;;;;21.73;19.65;;;5.90;99.90;;;;;;4965003;28;20054;-75
2023/04/18 03:44:17;;;;;;;22.48;20.25;;;5.90;99.90;;;;;;4995462;28;20044;-74
2023/04/18 03:46:43;;;;;;;23.48;21.27;;;5.90;99.90;;;;;;4978539;28;20445;-75
2023/04/18 03:49:08;;;;;;;23.63;21.42;;;5.80;99.90;;;;;;4948584;28;20040;-75
2023/04/18 03:51:42;;;;;;;22.40;20.30;;;5.80;99.90;;;;;;4959256;28;20398;-75
2023/04/18 03:54:08;;;;;;;22.90;20.80;;;5.80;99.90;;;;;;5020517;28;20511;-74
2023/04/18 03:56:34;;;;;;;23.45;21.33;;;5.80;99.90;;;;;;5023638;28;20044;-75
2023/04/18 03:59:00;;;;;;;22.58;20.40;;;5.80;99.90;;;;;;5006430;28;20032;-74
2023/04/18 04:01:25;;;;;;;22.45;20.45;;;5.80;99.90;;;;;;4986704;28;20039;-75
2023/04/18 04:03:51;;;;;;;23.63;21.40;;;5.80;99.90;;;;;;4943598;28;20046;-75
2023/04/18 04:06:17;;;;;;;22.77;20.52;;;5.80;99.90;;;;;;5022867;28;20039;-75
2023/04/18 04:08:42;;;;;;;24.40;22.00;;;5.70;99.90;;;;;;4956321;28;20184;-75
2023/04/18 04:11:08;;;;;;;22.83;20.40;;;5.80;99.90;;;;;;4996272;28;20025;-75
2023/04/18 04:13:34;;;;;;;23.58;21.17;;;5.70;99.90;;;;;;5042219;28;20056;-75
2023/04/18 04:16:00;;;;;;;22.85;20.55;;;5.70;99.90;;;;;;4978351;28;20035;-75
2023/04/18 04:18:29;;;;;;;22.13;19.83;;;5.80;99.90;;;;;;4969561;28;20126;-74
2023/04/18 04:20:56;;;;;;;22.35;20.25;;;5.80;99.90;;;;;;4952155;28;20436;-75
2023/04/18 04:23:24;;;;;;;21.75;19.65;;;5.70;99.90;;;;;;4952484;28;20039;-75
2023/04/18 04:25:51;;;;;;;23.00;20.90;;;5.90;99.90;;;;;;4978693;28;20043;-75
2023/04/18 04:28:21;;;;;;;21.80;19.70;;;5.90;99.90;;;;;;4971531;28;20126;-74
2023/04/18 04:30:47;;;;;;;22.10;19.88;;;5.90;99.90;;;;;;4970581;28;20089;-75
2023/04/18 04:33:13;;;;;;;21.33;19.27;;;5.90;99.90;;;;;;4972116;28;20149;-75
2023/04/18 04:35:38;;;;;;;21.60;19.65;;;6.00;99.90;;;;;;5072874;28;20075;-75
2023/04/18 04:38:04;;;;;;;21.55;19.52;;;6.00;99.90;;;;;;5056071;28;20040;-75
2023/04/18 04:40:30;;;;;;;20.88;18.85;;;6.00;99.90;;;;;;5056189;28;20040;-75
2023/04/18 04:42:55;;;;;;;21.67;19.55;;;6.00;99.90;;;;;;4971433;28;20063;-76
2023/04/18 04:45:22;;;;;;;20.42;18.52;;;6.10;99.90;;;;;;4977204;28;20061;-75
2023/04/18 04:47:47;;;;;;;20.77;18.88;;;6.10;99.90;;;;;;4974178;28;20126;-75
2023/04/18 04:50:14;;;;;;;21.05;18.98;;;6.20;99.90;;;;;;4990997;28;20125;-75
2023/04/18 04:52:41;;;;;;;20.38;18.38;;;6.20;99.90;;;;;;4974147;28;20038;-75
2023/04/18 04:55:07;;;;;;;19.85;17.80;;;6.20;99.90;;;;;;4955950;28;20406;-75
2023/04/18 04:57:32;;;;;;;20.92;19.02;;;6.20;99.90;;;;;;4957845;28;20042;-75
2023/04/18 04:59:58;;;;;;;21.23;18.98;;;6.30;99.90;;;;;;4945522;28;20039;-75
2023/04/18 05:02:23;;;;;;;20.75;18.75;;;6.30;99.90;;;;;;4951629;29;20043;-75
2023/04/18 05:04:49;;;;;;;20.45;18.35;;;6.30;99.90;;;;;;4955464;28;20046;-75
2023/04/18 05:07:15;;;;;;;20.98;18.98;;;6.40;99.90;;;;;;4971207;28;20047;-75
2023/04/18 05:09:40;;;;;;;19.95;18.00;;;6.50;99.90;;;;;;4992492;28;20055;-75
2023/04/18 05:12:06;;;;;;;20.98;18.88;;;6.60;99.90;;;;;;4976317;28;20043;-75
2023/04/18 05:14:32;;;;;;;20.95;18.95;;;6.50;99.90;;;;;;4961389;28;20124;-76
2023/04/18 05:16:57;;;;;;;22.23;20.08;;;6.60;99.90;;;;;;4973983;28;20062;-75
2023/04/18 05:19:23;;;;;;;22.52;20.25;;;6.60;99.90;;;;;;4978701;28;20042;-76
2023/04/18 05:21:48;;;;;;;22.85;20.63;;;6.60;99.90;;;;;;4955131;28;20402;-75
2023/04/18 05:24:14;;;;;;;22.85;20.55;;;6.60;99.90;;;;;;4955669;28;20031;-76
2023/04/18 05:26:40;;;;;;;22.90;20.80;;;6.60;99.90;;;;;;5044222;28;20033;-76
2023/04/18 05:29:05;;;;;;;23.63;21.35;;;6.70;99.90;;;;;;4990053;28;20038;-75
2023/04/18 05:31:31;;;;;;;24.15;21.77;;;6.60;99.90;;;;;;4951910;28;20135;-76
2023/04/18 05:33:57;;;;;;;25.15;22.75;;;6.60;99.90;;;;;;4954165;28;20527;-75
2023/04/18 05:36:22;;;;;;;24.52;22.25;;;6.60;99.90;;;;;;4983941;28;20042;-75
2023/04/18 05:38:48;;;;;;;23.60;21.33;;;6.60;99.90;;;;;;4954841;28;20078;-76
2023/04/18 05:41:13;;;;;;;23.27;20.92;;;6.60;99.90;;;;;;4954374;28;20039;-75
2023/04/18 05:43:39;;;;;;;24.15;21.90;;;6.60;99.90;;;;;;4963905;28;20042;-75
2023/04/18 05:46:04;;;;;;;23.73;21.55;;;6.60;99.90;;;;;;4967355;28;20043;-75
2023/04/18 05:48:30;;;;;;;24.25;21.85;;;6.60;99.90;;;;;;4965353;28;20045;-75
2023/04/18 05:50:56;;;;;;;24.48;22.17;;;6.60;99.90;;;;;;4962100;28;20530;-76
2023/04/18 05:53:22;;;;;;;24.02;21.73;;;6.60;99.90;;;;;;4934686;28;20491;-75
2023/04/18 05:55:48;;;;;;;23.02;20.73;;;6.60;99.90;;;;;;4950573;28;20039;-75
2023/04/18 05:58:14;;;;;;;22.67;20.45;;;6.60;99.90;;;;;;4970222;28;20042;-75
2023/04/18 06:00:41;;;;;;;24.17;21.60;;;6.60;99.90;;;;;;4980465;28;20406;-76
2023/04/18 06:03:07;;;;;;;25.00;22.50;;;6.70;99.90;;;;;;4938400;28;20073;-76
2023/04/18 06:05:32;;;;;;;23.52;21.25;;;6.70;99.90;;;;;;5051893;28;20522;-77
2023/04/18 06:07:58;;;;;;;23.77;21.38;;;6.80;99.90;;;;;;4991014;28;20039;-77
2023/04/18 06:10:24;;;;;;;23.00;20.73;;;6.70;99.90;;;;;;4962364;28;20126;-76
2023/04/18 06:12:50;;;;;;;23.70;21.35;;;6.80;99.90;;;;;;4968723;28;20390;-76
2023/04/18 06:15:15;;;;;;;22.90;20.80;;;6.80;99.90;;;;;;4988376;28;20035;-76
2023/04/18 06:17:41;;;;;;;23.58;21.35;;;6.80;99.90;;;;;;4993793;28;20140;-76
2023/04/18 06:20:08;;;;;;;23.48;21.33;;;6.80;99.90;;;;;;4984910;28;20082;-77
2023/04/18 06:22:33;;;;;;;22.83;20.52;;;6.80;99.90;;;;;;5002969;28;20048;-76
2023/04/18 06:24:59;;;;;;;21.90;19.70;;;6.80;99.90;;;;;;4950508;28;20490;-76
2023/04/18 06:27:26;;;;;;;22.75;20.58;;;6.90;99.90;;;;;;4964926;28;20051;-76
2023/04/18 06:29:52;;;;;;;23.60;21.30;;;6.90;99.90;;;;;;4989497;28;20395;-76
2023/04/18 06:32:17;;;;;;;22.23;20.13;;;7.00;99.90;;;;;;4986088;28;20045;-76
2023/04/18 06:34:43;;;;;;;21.52;19.40;;;7.00;99.90;;;;;;5001498;28;20086;-76
2023/04/18 06:37:10;;;;;;;22.20;20.10;;;7.00;99.90;;;;;;4956474;28;20081;-76
2023/04/18 06:39:35;;;;;;;22.63;20.48;;;7.10;99.90;;;;;;4956077;28;20066;-75
2023/04/18 06:42:03;;;;;;;21.83;19.67;;;7.20;99.90;;;;;;4938959;28;20066;-75
2023/04/18 06:44:32;;;;;;;21.45;19.45;;;7.30;99.90;;;;;;4969725;28;20054;-75
2023/04/18 06:46:57;;;;;;;22.90;20.83;;;7.50;99.90;;;;;;4983226;28;20377;-76
2023/04/18 06:49:23;;;;;;;21.25;19.33;;;7.50;99.90;;;;;;4949692;28;20065;-75
2023/04/18 06:51:49;;;;;;;21.08;19.02;;;7.70;99.90;;;;;;4933733;29;20104;-75
2023/04/18 06:54:14;;;;;;;20.10;18.25;;;7.80;99.90;;;;;;5024528;28;20025;-75
2023/04/18 06:56:40;;;;;;;21.25;19.05;;;8.00;99.90;;;;;;5033676;28;20095;-76
2023/04/18 06:59:05;;;;;;;21.42;19.33;;;8.10;99.90;;;;;;5013166;28;20042;-75
2023/04/18 07:01:33;;;;;;;20.05;18.15;;;8.20;99.90;;;;;;4946007;28;20038;-75
2023/04/18 07:04:01;;;;;;;20.25;18.15;;;8.30;99.90;;;;;;4962672;28;20494;-76
2023/04/18 07:06:27;;;;;;;20.45;18.55;;;8.40;99.90;;;;;;4952442;28;20054;-75
2023/04/18 07:08:54;;;;;;;19.02;17.13;;;8.50;99.90;;;;;;4964556;28;20043;-76
2023/04/18 07:11:22;;;;;;;19.23;17.40;;;8.70;99.90;;;;;;4964290;28;20103;-77
2023/04/18 07:13:49;;;;;;;19.90;18.00;;;8.70;99.90;;;;;;4964281;28;20073;-76
2023/04/18 07:16:14;;;;;;;20.27;18.27;;;8.70;99.90;;;;;;4973874;28;20045;-75
2023/04/18 07:18:42;;;;;;;20.05;18.15;;;8.80;99.90;;;;;;4974213;28;20046;-75
2023/04/18 07:21:08;;;;;;;19.65;17.73;;;8.90;99.90;;;;;;4976914;28;20047;-76
2023/04/18 07:23:34;;;;;;;20.65;18.30;;;9.00;99.90;;;;;;5010545;28;20039;-74
2023/04/18 07:26:01;;;;;;;19.83;18.02;;;8.90;99.90;;;;;;4949934;28;20039;-74
2023/04/18 07:28:27;;;;;;;19.45;17.65;;;9.00;99.90;;;;;;4969793;28;20169;-75
2023/04/18 07:30:55;;;;;;;19.67;17.77;;;9.00;99.90;;;;;;5003894;28;20038;-75
2023/04/18 07:33:21;;;;;;;18.70;17.00;;;9.10;99.90;;;;;;4962250;28;20517;-74
2023/04/18 07:35:48;;;;;;;19.33;17.60;;;9.10;99.90;;;;;;4987040;28;20047;-75
2023/04/18 07:38:14;;;;;;;17.42;15.82;;;9.20;99.90;;;;;;4966809;28;20045;-75
2023/04/18 07:40:40;;;;;;;18.50;16.73;;;9.30;99.90;;;;;;4954946;28;20042;-77
2023/04/18 07:43:06;;;;;;;17.52;15.93;;;9.20;99.90;;;;;;4969669;28;20111;-74
2023/04/18 07:45:34;;;;;;;18.08;16.27;;;9.30;99.90;;;;;;4948752;28;20125;-75
2023/04/18 07:48:00;;;;;;;16.95;15.27;;;9.40;99.90;;;;;;4964313;28;20492;-75
2023/04/18 07:50:26;;;;;;;15.70;14.20;;;9.40;99.90;;;;;;5010075;28;20039;-75
2023/04/18 07:52:51;;;;;;;17.55;15.82;;;9.50;99.90;;;;;;4961259;28;20398;-75
2023/04/18 07:55:17;;;;;;;17.15;15.55;;;9.50;99.90;;;;;;4946737;28;20122;-75
2023/04/18 07:57:43;;;;;;;16.67;15.20;;;9.70;99.90;;;;;;4982827;28;20114;-74
2023/04/18 08:00:10;;;;;;;15.55;14.05;;;9.80;99.90;;;;;;5003486;28;20036;-74
2023/04/18 08:02:36;;;;;;;15.45;14.02;;;10.00;99.90;;;;;;4954074;28;20097;-74
2023/04/18 08:05:01;;;;;;;16.58;14.98;;;10.00;99.90;;;;;;4962770;28;20042;-75
2023/04/18 08:07:27;;;;;;;15.63;14.02;;;10.00;99.90;;;;;;4983060;28;20055;-75
2023/04/18 08:09:52;;;;;;;15.90;14.35;;;9.90;99.90;;;;;;4971828;28;20109;-75
2023/04/18 08:12:18;;;;;;;15.23;13.82;;;9.80;99.90;;;;;;4956803;28;20573;-75
2023/04/18 08:14:44;;;;;;;15.85;14.38;;;9.80;99.90;;;;;;4984277;28;20036;-75
2023/04/18 08:17:09;;;;;;;15.70;14.30;;;9.70;99.90;;;;;;4960623;28;20483;-75
2023/04/18 08:19:35;;;;;;;15.45;13.93;;;9.70;99.90;;;;;;4976611;28;20040;-75
2023/04/18 08:22:09;;;;;;;14.85;13.45;;;9.70;99.90;;;;;;4980925;28;20127;-75
2023/04/18 08:24:39;;;;;;;15.82;14.32;;;9.80;99.90;;;;;;4957990;28;20039;-77
2023/04/18 08:27:05;;;;;;;16.63;14.38;;;9.90;99.90;;;;;;4972640;28;20461;-77
2023/04/18 08:29:31;;;;;;;16.23;14.63;;;10.10;99.90;;;;;;4986900;28;20066;-77
2023/04/18 08:31:56;;;;;;;15.65;14.18;;;10.20;99.90;;;;;;4986682;28;20068;-76
2023/04/18 08:34:22;;;;;;;15.65;14.15;;;10.20;99.90;;;;;;5007660;28;20052;-76
2023/04/18 08:36:49;;;;;;;15.20;13.70;;;10.20;99.90;;;;;;4958651;28;20065;-76
2023/04/18 08:39:15;;;;;;;16.63;15.00;;;10.20;99.90;;;;;;4967341;28;20126;-76
2023/04/18 08:41:42;;;;;;;15.35;13.85;;;10.20;99.90;;;;;;5002697;28;20060;-78
2023/04/18 08:44:08;;;;;;;15.75;14.25;;;10.30;99.90;;;;;;4992020;28;20075;-77
2023/04/18 08:46:34;;;;;;;15.45;13.95;;;10.40;99.90;;;;;;4995814;28;20126;-76
2023/04/18 08:49:04;;;;;;;14.88;13.48;;;10.50;99.90;;;;;;4959764;28;20047;-75
2023/04/18 08:51:31;;;;;;;14.40;13.10;;;10.80;99.90;;;;;;4969275;28;20068;-76
2023/04/18 08:54:03;;;;;;;14.60;13.20;;;11.20;99.90;;;;;;4974837;28;20050;-76
2023/04/18 08:56:29;;;;;;;13.90;12.70;;;11.40;99.90;;;;;;4977912;28;20694;-76
2023/04/18 08:58:59;;;;;;;15.10;13.70;;;11.40;99.90;;;;;;5010899;28;20046;-75
2023/04/18 09:01:58;;;;;;;15.40;13.88;;;11.30;99.90;;;;;;4982603;28;20093;-75
2023/04/18 09:04:44;;;;;;;15.15;13.65;;;11.50;99.90;;;;;;5001946;28;20049;-75
2023/04/18 09:07:15;;;;;;;15.52;14.02;;;12.20;99.90;;;;;;5028994;28;20043;-75
2023/04/18 09:09:48;;;;;;;15.75;14.27;;;12.40;99.90;;;;;;4996694;28;20086;-75
2023/04/18 09:12:25;;;;;;;15.60;14.20;;;12.60;99.90;;;;;;5005890;28;20392;-75
2023/04/18 09:14:56;;;;;;;15.32;13.82;;;12.60;92.20;;;;;;5041387;28;20034;-75
2023/04/18 09:17:33;;;;;;;15.65;14.25;;;12.30;99.90;;;;;;4984879;28;20050;-75
2023/04/18 09:20:00;;;;;;;15.85;14.45;;;12.70;99.90;;;;;;5052049;28;20121;-75
2023/04/18 09:22:41;;;;;;;15.05;13.70;;;13.30;96.30;;;;;;4995793;28;20039;-75
2023/04/18 09:25:08;;;;;;;14.13;12.82;;;13.50;91.90;;;;;;4952764;28;20046;-75
2023/04/18 09:27:37;;;;;;;14.98;13.50;;;13.70;90.60;;;;;;4940387;28;20047;-76
2023/04/18 09:30:02;;;;;;;14.45;13.05;;;13.80;85.60;;;;;;4954944;28;20035;-75
2023/04/18 09:32:29;;;;;;;14.52;13.20;;;13.60;87.00;;;;;;4981989;28;20126;-75
2023/04/18 09:35:00;;;;;;;14.38;13.07;;;13.20;90.60;;;;;;4937004;28;20559;-75
2023/04/18 09:37:31;;;;;;;15.65;14.30;;;12.90;93.10;;;;;;4987308;28;20133;-75
2023/04/18 09:39:57;;;;;;;15.63;14.23;;;12.70;98.90;;;;;;4982768;28;20079;-75
2023/04/18 09:42:23;;;;;;;15.60;14.18;;;12.40;99.90;;;;;;4973945;28;20537;-75
2023/04/18 09:45:02;;;;;;;15.32;13.93;;;12.60;99.90;;;;;;4962757;28;20039;-75
2023/04/18 09:47:28;;;;;;;17.23;15.55;;;13.00;99.70;;;;;;4975913;28;20054;-75
2023/04/18 09:49:54;;;;;;;17.02;15.43;;;13.30;95.80;;;;;;5050832;28;20047;-75
2023/04/18 09:52:24;;;;;;;16.38;14.88;;;13.80;92.80;;;;;;4975630;28;20086;-75
2023/04/18 09:54:57;;;;;;;15.52;14.02;;;14.10;90.00;;;;;;5004711;28;20480;-75
2023/04/18 09:57:29;;;;;;;16.23;14.73;;;13.90;83.80;;;;;;4995837;28;20041;-77
2023/04/18 10:00:00;;;;;;;17.02;15.52;;;13.20;91.10;;;;;;4958043;28;20042;-76
2023/04/18 10:02:30;;;;;;;16.52;15.02;;;13.00;96.50;;;;;;4952961;28;20533;-75
2023/04/18 10:04:57;;;;;;;17.23;15.52;;;13.20;97.80;;;;;;4996825;28;20032;-76
2023/04/18 10:07:25;;;;;;;16.08;14.68;;;13.40;98.00;;;;;;4986198;28;20511;-76
2023/04/18 10:09:51;;;;;;;16.30;14.80;;;13.70;94.20;;;;;;4957718;28;20038;-76
2023/04/18 10:12:17;;;;;;;16.83;15.32;;;14.10;93.00;;;;;;4984804;28;20556;-75
2023/04/18 10:14:43;;;;;;;17.38;15.80;;;14.20;89.90;;;;;;5029832;28;20032;-76
2023/04/18 10:17:10;;;;;;;17.45;15.82;;;14.20;87.80;;;;;;5071701;28;20496;-76
2023/04/18 10:19:43;;;;;;;16.98;15.27;;;14.20;91.20;;;;;;4982142;28;20596;-76
2023/04/18 10:22:10;;;;;;;16.77;15.18;;;14.60;88.60;;;;;;4956468;28;20031;-76
2023/04/18 10:24:51;;;;;;;16.48;14.98;;;14.80;81.70;;;;;;4993230;28;20078;-75
2023/04/18 10:27:37;;;;;;;17.23;15.63;;;14.80;80.70;;;;;;5045853;28;20091;-76
2023/04/18 10:30:03;;;;;;;17.65;15.95;;;14.90;80.30;;;;;;4964871;28;20042;-74
2023/04/18 10:32:29;;;;;;;17.63;16.00;;;15.20;78.30;;;;;;4970831;28;20084;-74
2023/04/18 10:34:55;;;;;;;17.98;16.27;;;15.20;79.50;;;;;;4972385;28;20122;-74
2023/04/18 10:37:20;;;;;;;17.45;15.77;;;15.30;78.80;;;;;;5073975;28;20038;-77
2023/04/18 10:39:59;;;;;;;18.08;16.38;;;15.10;77.30;;;;;;5051858;28;20043;-76
2023/04/18 10:42:50;;;;;;;17.02;15.43;;;14.50;79.00;;;;;;4985114;28;20050;-77
2023/04/18 10:45:20;;;;;;;16.80;15.20;;;14.60;81.00;;;;;;4974925;28;20055;-76
2023/04/18 10:47:46;;;;;;;17.42;15.93;;;14.90;82.20;;;;;;4987497;28;20485;-76
2023/04/18 10:50:12;;;;;;;16.67;15.07;;;14.80;79.50;;;;;;4971461;28;20035;-76
2023/04/18 10:52:37;;;;;;;16.77;15.13;;;14.80;82.00;;;;;;4946274;28;20053;-75
2023/04/18 10:55:07;;;;;;;16.15;14.65;;;15.20;81.10;;;;;;4969723;28;20038;-75
2023/04/18 10:57:38;;;;;;;15.95;14.35;;;15.40;85.40;;;;;;4971003;28;20176;-75
2023/04/18 11:00:08;;;;;;;15.52;13.93;;;16.00;77.50;;;;;;5057866;28;20352;-75
2023/04/18 11:02:33;;;;;;;15.75;14.25;;;16.10;76.50;;;;;;4965732;28;20054;-75
2023/04/18 11:05:01;;;;;;;15.32;13.93;;;15.90;73.50;;;;;;4969989;28;20057;-75
2023/04/18 11:07:45;;;;;;;14.55;13.25;;;15.80;76.50;;;;;;4951215;28;21235;-75
2023/04/18 11:10:11;;;;;;;14.35;13.05;;;16.10;76.70;;;;;;4952535;28;20042;-75
2023/04/18 11:12:40;;;;;;;13.02;11.75;;;16.30;75.80;;;;;;4952690;28;20085;-75
2023/04/18 11:15:11;;;;;;;14.00;12.65;;;16.60;72.80;;;;;;4963491;28;20039;-75
2023/04/18 11:17:38;;;;;;;13.45;12.20;;;16.80;72.10;;;;;;4976836;28;20039;-75
2023/04/18 11:20:14;;;;;;;13.93;12.63;;;16.90;69.70;;;;;;4960764;28;20047;-75
2023/04/18 11:22:53;;;;;;;14.55;13.18;;;16.50;72.20;;;;;;4949656;28;20402;-75
2023/04/18 11:25:23;;;;;;;14.68;13.27;;;16.40;71.30;;;;;;4963675;28;20407;-75
2023/04/18 11:27:54;;;;;;;14.80;13.45;;;16.40;71.30;;;;;;4968468;28;20047;-75
2023/04/18 11:30:20;;;;;;;15.40;13.90;;;16.50;72.00;;;;;;4952774;28;20036;-75
2023/04/18 11:32:46;;;;;;;15.32;14.00;;;16.50;73.30;;;;;;4961273;28;20038;-75
2023/04/18 11:35:13;;;;;;;16.27;14.68;;;16.20;70.80;;;;;;5056889;28;20648;-75
2023/04/18 11:37:40;;;;;;;15.73;14.38;;;15.80;71.40;;;;;;4973078;28;20124;-75
2023/04/18 11:40:08;;;;;;;15.32;14.02;;;15.90;73.20;;;;;;5057027;28;20085;-75
2023/04/18 11:42:34;;;;;;;15.88;14.52;;;16.20;71.70;;;;;;4955776;28;20062;-75
2023/04/18 11:45:01;;;;;;;16.27;14.88;;;16.20;71.10;;;;;;4971820;28;20049;-75
2023/04/18 11:47:29;;;;;;;15.57;14.18;;;16.20;71.70;;;;;;4971669;28;20051;-75
2023/04/18 11:50:03;;;;;;;15.15;13.77;;;16.70;71.60;;;;;;4961280;28;20039;-75
2023/04/18 11:52:30;;;;;;;15.20;13.80;;;17.10;70.30;;;;;;4953636;29;20441;-75
2023/04/18 11:55:09;;;;;;;14.40;13.18;;;17.20;68.10;;;;;;4953291;29;20035;-75
2023/04/18 11:57:35;;;;;;;14.43;13.13;;;17.40;69.10;;;;;;4952173;28;20055;-75
2023/04/18 12:00:00;;;;;;;15.52;14.23;;;17.80;67.80;;;;;;4952374;29;20053;-75
2023/04/18 12:02:38;;;;;;;14.30;13.00;;;18.10;70.20;;;;;;4952327;29;20086;-75
2023/04/18 12:05:05;;;;;;;13.73;12.52;;;18.40;66.30;;;;;;4951972;28;20047;-75
2023/04/18 12:07:46;;;;;;;13.55;12.35;;;18.30;63.60;;;;;;4966195;28;20043;-76
2023/04/18 12:10:22;;;;;;;11.90;10.73;;;17.90;64.00;;;;;;4971577;28;20092;-75
2023/04/18 12:12:53;;;;;;;13.40;12.30;;;17.90;63.10;;;;;;5056168;28;20047;-76
2023/04/18 12:15:20;;;;;;;12.95;11.75;;;17.80;65.60;;;;;;4971136;28;20550;-75
2023/04/18 12:17:47;;;;;;;12.43;11.43;;;18.00;65.10;;;;;;5056660;28;20049;-75
2023/04/18 12:20:14;;;;;;;14.13;12.77;;;18.20;64.40;;;;;;4963559;28;20073;-75
2023/04/18 12:22:48;;;;;;;14.35;13.02;;;18.30;63.80;;;;;;4970502;28;20051;-75
2023/04/18 12:25:22;;;;;;;14.40;13.07;;;18.40;63.30;;;;;;4951686;28;20130;-76
2023/04/18 12:27:50;;;;;;;13.40;12.18;;;18.50;63.10;;;;;;4952087;29;20079;-76
2023/04/18 12:30:18;;;;;;;14.57;13.27;;;18.10;62.20;;;;;;4953000;28;20042;-76
2023/04/18 12:32:44;;;;;;;13.95;12.73;;;17.80;63.30;;;;;;5020062;28;20071;-76
2023/04/18 12:35:10;;;;;;;14.80;13.48;;;17.80;62.50;;;;;;4951492;29;20503;-75